Current Weather Conditions: station CDEA2

sailwx.info

Wind from 150 at 15 knots gusting 20

Air temperature 8.5° C
Dewpoint 7.6° C

Last reported at 2020-Oct-26 08:22 UTC.
Time now 2020-Oct-26 09:14 UTC

Location: N 56°01' W 134°08'.
View on Google Maps.

See reports from other nearby stations

  
Tides and Currents Weather Stations Pressure Air Temp Water Temp Dewpoint Dewpoint Depression Visibility Wind Speed Wind Dir Waves Ship Positions
date/time (UTC)wind fromknots sea level pressurealtimeterstation pressurevisibilityair tempwater tempwave heightnotes
2020-Oct-26 08:22 150 15 gusting 20 8.5
2020-Oct-26 07:22 070 11 gusting 15 6.8
2020-Oct-26 06:22 080 15 gusting 20 6.0
2020-Oct-26 05:22 080 19 gusting 25 5.7
2020-Oct-26 04:22 080 20 gusting 26 5.2
2020-Oct-26 03:22 080 19 gusting 27 4.8
2020-Oct-26 02:22 080 27 gusting 32 4.8
2020-Oct-26 01:22 090
2020-Oct-26 00:22 090 27 gusting 31 4.7
2020-Oct-25 23:22 090 27 gusting 32 4.7
2020-Oct-25 22:22 090 27 gusting 33 4.7
2020-Oct-25 21:22 090 27
2020-Oct-25 20:22 100 29 gusting 34 4.2
2020-Oct-25 19:22 100 28 gusting 35 3.9
2020-Oct-25 18:22 100 27 gusting 32 4.0
2020-Oct-25 17:22 090 21 gusting 27 4.0
2020-Oct-25 16:22 090 20 gusting 22 4.3
2020-Oct-25 15:22 100 14 gusting 17 4.7
2020-Oct-25 14:22 130 13 gusting 19 5.4
2020-Oct-25 13:22 130 11 gusting 15 5.6
2020-Oct-25 12:22 140 12 gusting 14 6.0
2020-Oct-25 11:22 160 11 gusting 15 6.2
2020-Oct-25 10:22 130 9 gusting 13 6.1
2020-Oct-25 08:22 090 13 gusting 14 5.9
2020-Oct-25 06:22 090 12 gusting 13 6.1
2020-Oct-25 04:22 080 11 gusting 14 5.9
2020-Oct-25 03:22 050 6 gusting 11 5.1
2020-Oct-25 02:22 060 6 gusting 13 5.3
2020-Oct-25 01:22 070 6 gusting 13 5.9
2020-Oct-25 00:22 070 6 gusting 13 5.8
2020-Oct-24 23:22 070 6 gusting 13 6.1
2020-Oct-24 22:22 050 5 gusting 11 6.3
2020-Oct-24 21:22 070 9 gusting 18 6.3
2020-Oct-24 20:22 070 8 gusting 18 5.7
2020-Oct-24 19:22 060 6 gusting 15 6.9
2020-Oct-24 18:22 040 4 gusting 13 7.0
2020-Oct-24 17:22 040 2 gusting 14 6.0
2020-Oct-24 16:22 030 4 gusting 12 3.5
2020-Oct-24 15:22 360 2 gusting 13 3.2
2020-Oct-24 14:22 280 2 gusting 13 3.3
2020-Oct-24 12:22 260 1 gusting 6 3.5
2020-Oct-24 11:22 040 5 gusting 15 3.9
2020-Oct-24 10:22 050 5 gusting 15 4.1
2020-Oct-24 09:22 030 6 gusting 13 4.2